createdAt,value
2022-11-27T00:01:54.553Z,988.04
2022-11-27T00:06:54.513Z,988.01
2022-11-27T00:11:54.496Z,988.04
2022-11-27T00:16:54.424Z,988.03
2022-11-27T00:21:54.332Z,987.96
2022-11-27T00:26:54.277Z,987.89
2022-11-27T00:31:54.218Z,987.86
2022-11-27T00:36:54.155Z,987.78
2022-11-27T00:41:54.135Z,987.71
2022-11-27T00:46:54.074Z,987.71
2022-11-27T00:51:53.955Z,987.69
2022-11-27T00:56:53.943Z,987.76
2022-11-27T01:01:53.884Z,987.62
2022-11-27T01:06:53.813Z,987.56
2022-11-27T01:11:53.778Z,987.57
2022-11-27T01:16:53.711Z,987.56
2022-11-27T01:21:53.624Z,987.54
2022-11-27T01:26:53.585Z,987.60
2022-11-27T01:31:53.526Z,987.55
2022-11-27T01:36:53.452Z,987.48
2022-11-27T01:41:53.408Z,987.42
2022-11-27T01:46:53.515Z,987.30
2022-11-27T01:51:53.289Z,987.22
2022-11-27T01:56:53.243Z,987.15
2022-11-27T02:01:53.212Z,987.11
2022-11-27T02:06:53.155Z,987.14
2022-11-27T02:11:53.108Z,987.20
2022-11-27T02:16:53.057Z,987.24
2022-11-27T02:21:53.004Z,987.28
2022-11-27T02:26:52.943Z,987.19
2022-11-27T02:31:52.873Z,987.16
2022-11-27T02:36:52.859Z,987.13
2022-11-27T02:41:52.776Z,987.05
2022-11-27T02:46:52.793Z,986.96
2022-11-27T02:51:52.689Z,986.90
2022-11-27T02:56:52.615Z,986.83
2022-11-27T03:01:52.558Z,986.71
2022-11-27T03:06:52.515Z,986.59
2022-11-27T03:11:52.454Z,986.56
2022-11-27T03:16:52.403Z,986.54
2022-11-27T03:21:52.310Z,986.55
2022-11-27T03:26:52.265Z,986.59
2022-11-27T03:31:52.204Z,986.73
2022-11-27T03:36:52.168Z,986.77
2022-11-27T03:41:52.437Z,986.80
2022-11-27T03:46:52.140Z,986.80
2022-11-27T03:51:52.009Z,986.81
2022-11-27T03:56:51.973Z,986.87
2022-11-27T04:01:51.998Z,986.75
2022-11-27T04:06:51.832Z,986.70
2022-11-27T04:11:51.756Z,986.60
2022-11-27T04:16:51.809Z,986.72
2022-11-27T04:21:51.659Z,986.69
2022-11-27T04:26:51.622Z,986.70
2022-11-27T04:31:51.600Z,986.67
2022-11-27T04:36:51.505Z,986.54
2022-11-27T04:41:51.455Z,986.58
2022-11-27T04:46:51.509Z,986.58
2022-11-27T04:51:51.333Z,986.69
2022-11-27T04:56:51.297Z,986.62
2022-11-27T05:01:51.231Z,986.59
2022-11-27T05:06:51.144Z,986.61
2022-11-27T05:11:51.101Z,986.58
2022-11-27T05:16:51.044Z,986.55
2022-11-27T05:21:50.973Z,986.54
2022-11-27T05:26:50.916Z,986.58
2022-11-27T05:31:50.897Z,986.51
2022-11-27T05:36:50.828Z,986.50
2022-11-27T05:41:50.750Z,986.41
2022-11-27T05:46:50.798Z,986.29
2022-11-27T05:51:51.532Z,986.34
2022-11-27T05:56:50.564Z,986.31
2022-11-27T06:01:50.536Z,986.33
2022-11-27T06:06:50.511Z,986.43
2022-11-27T06:11:50.384Z,986.35
2022-11-27T06:16:50.321Z,986.49
2022-11-27T06:21:50.263Z,986.45
2022-11-27T06:26:50.210Z,986.35
2022-11-27T06:31:50.216Z,986.40
2022-11-27T06:36:50.086Z,986.43
2022-11-27T06:41:50.044Z,986.45
2022-11-27T06:46:50.015Z,986.38
2022-11-27T06:51:49.899Z,986.28
2022-11-27T06:56:49.860Z,986.26
2022-11-27T07:01:49.902Z,986.17
2022-11-27T07:06:49.735Z,986.22
2022-11-27T07:11:49.674Z,986.28
2022-11-27T07:16:49.695Z,986.43
2022-11-27T07:21:49.555Z,986.38
2022-11-27T07:26:49.466Z,986.31
2022-11-27T07:31:49.458Z,986.33
2022-11-27T07:36:49.340Z,986.38
2022-11-27T07:41:49.293Z,986.43
2022-11-27T07:46:49.249Z,986.33
2022-11-27T07:51:49.183Z,986.31
2022-11-27T07:56:49.139Z,986.31
2022-11-27T08:01:49.071Z,986.24
2022-11-27T08:06:49.003Z,986.28
2022-11-27T08:11:48.973Z,986.23
2022-11-27T08:16:48.953Z,986.14
2022-11-27T08:21:48.844Z,986.11
2022-11-27T08:26:48.765Z,986.10
2022-11-27T08:31:48.776Z,986.01
2022-11-27T08:36:48.658Z,985.94
2022-11-27T08:41:48.639Z,985.92
2022-11-27T08:46:48.615Z,985.91
2022-11-27T08:51:48.585Z,985.79
2022-11-27T08:56:48.452Z,985.69
2022-11-27T09:01:48.401Z,985.75
2022-11-27T09:06:48.306Z,985.75
2022-11-27T09:11:48.301Z,985.72
2022-11-27T09:16:48.311Z,985.78
2022-11-27T09:21:48.515Z,985.74
2022-11-27T09:26:48.109Z,985.66
2022-11-27T09:31:48.093Z,985.67
2022-11-27T09:36:47.922Z,985.62
2022-11-27T09:41:47.862Z,985.55
2022-11-27T09:46:47.819Z,985.37
2022-11-27T09:51:47.786Z,985.26
2022-11-27T09:56:47.701Z,985.22
2022-11-27T10:01:50.887Z,985.16
2022-11-27T10:06:47.608Z,985.02
2022-11-27T10:11:47.511Z,984.96
2022-11-27T10:16:47.698Z,984.95
2022-11-27T10:21:47.392Z,984.89
2022-11-27T10:26:47.382Z,984.82
2022-11-27T10:31:47.371Z,984.87
2022-11-27T10:36:47.259Z,984.92
2022-11-27T10:41:49.679Z,984.81
2022-11-27T10:46:47.153Z,984.71
2022-11-27T10:51:47.112Z,984.63
2022-11-27T10:56:47.061Z,984.52
2022-11-27T11:01:47.029Z,984.53
2022-11-27T11:06:46.913Z,984.53
2022-11-27T11:11:46.864Z,984.50
2022-11-27T11:16:46.844Z,984.58
2022-11-27T11:21:46.789Z,984.53
2022-11-27T11:26:46.734Z,984.42
2022-11-27T11:31:46.734Z,984.31
2022-11-27T11:36:46.612Z,984.25
2022-11-27T11:41:46.557Z,984.17
2022-11-27T11:46:46.501Z,984.17
2022-11-27T11:51:46.438Z,984.13
2022-11-27T11:56:46.413Z,984.07
2022-11-27T12:01:46.375Z,984.03
2022-11-27T12:06:46.254Z,983.98
2022-11-27T12:11:46.223Z,983.91
2022-11-27T12:16:46.256Z,983.86
2022-11-27T12:21:46.100Z,983.70
2022-11-27T12:26:46.003Z,983.69
2022-11-27T12:31:46.112Z,983.67
2022-11-27T12:36:45.905Z,983.66
2022-11-27T12:41:45.823Z,983.59
2022-11-27T12:46:45.764Z,983.57
2022-11-27T12:51:45.717Z,983.57
2022-11-27T12:56:45.674Z,983.53
2022-11-27T13:01:45.755Z,983.42
2022-11-27T13:06:45.562Z,983.35
2022-11-27T13:11:45.489Z,983.31
2022-11-27T13:16:45.485Z,983.26
2022-11-27T13:21:45.369Z,983.16
2022-11-27T13:26:45.332Z,983.10
2022-11-27T13:31:45.277Z,983.07
2022-11-27T13:36:45.164Z,983.04
2022-11-27T13:41:45.092Z,983.00
2022-11-27T13:46:45.030Z,982.95
2022-11-27T13:51:44.991Z,982.93
2022-11-27T13:56:44.915Z,982.82
2022-11-27T14:01:44.941Z,982.81
2022-11-27T14:06:44.816Z,982.83
2022-11-27T14:11:44.759Z,982.66
2022-11-27T14:16:44.721Z,982.58
2022-11-27T14:21:44.649Z,982.48
2022-11-27T14:26:44.573Z,982.42
2022-11-27T14:31:44.658Z,982.43
2022-11-27T14:36:44.461Z,982.40
2022-11-27T14:41:44.440Z,982.40
2022-11-27T14:46:44.336Z,982.36
2022-11-27T14:51:44.275Z,982.34
2022-11-27T14:56:44.178Z,982.27
2022-11-27T15:01:44.224Z,982.24
2022-11-27T15:06:44.065Z,982.21
2022-11-27T15:11:55.543Z,982.18
2022-11-27T15:16:44.967Z,982.24
2022-11-27T15:21:43.867Z,982.20
2022-11-27T15:26:43.796Z,982.00
2022-11-27T15:31:43.769Z,982.01
2022-11-27T15:36:43.663Z,981.98
2022-11-27T15:41:43.792Z,981.93
2022-11-27T15:46:43.557Z,981.87
2022-11-27T15:51:43.517Z,981.78
2022-11-27T15:56:43.470Z,981.66
2022-11-27T16:01:43.449Z,981.68
2022-11-27T16:06:43.340Z,981.76
2022-11-27T16:11:43.302Z,981.65
2022-11-27T16:16:43.333Z,981.70
2022-11-27T16:21:43.191Z,981.64
2022-11-27T16:26:43.139Z,981.58
2022-11-27T16:31:43.255Z,981.46
2022-11-27T16:36:42.992Z,981.35
2022-11-27T16:41:42.966Z,981.31
2022-11-27T16:46:42.915Z,981.26
2022-11-27T16:51:42.872Z,981.18
2022-11-27T16:56:42.818Z,981.22
2022-11-27T17:01:42.907Z,981.19
2022-11-27T17:06:42.675Z,981.16
2022-11-27T17:11:42.647Z,981.12
2022-11-27T17:16:42.629Z,981.21
2022-11-27T17:21:42.543Z,981.10
2022-11-27T17:26:42.461Z,981.01
2022-11-27T17:31:42.477Z,980.85
2022-11-27T17:36:42.353Z,980.73
2022-11-27T17:41:42.298Z,980.73
2022-11-27T17:46:42.213Z,980.59
2022-11-27T17:51:42.164Z,980.48
2022-11-27T17:56:42.095Z,980.36
2022-11-27T18:01:42.125Z,980.20
2022-11-27T18:06:41.982Z,980.18
2022-11-27T18:11:41.966Z,980.09
2022-11-27T18:16:42.093Z,980.03
2022-11-27T18:21:41.822Z,979.87
2022-11-27T18:31:42.760Z,979.67
2022-11-27T18:36:41.655Z,979.68
2022-11-27T18:41:41.603Z,979.64
2022-11-27T18:46:41.547Z,979.66
2022-11-27T18:51:41.489Z,979.61
2022-11-27T18:56:41.410Z,979.50
2022-11-27T19:01:42.703Z,979.45
2022-11-27T19:06:41.281Z,979.44
2022-11-27T19:11:41.258Z,979.61
2022-11-27T19:16:41.232Z,979.66
2022-11-27T19:21:41.112Z,979.83
2022-11-27T19:26:41.048Z,979.93
2022-11-27T19:31:41.135Z,979.90
2022-11-27T19:36:40.933Z,979.89
2022-11-27T19:41:40.887Z,979.78
2022-11-27T19:46:40.833Z,979.70
2022-11-27T19:51:40.771Z,979.63
2022-11-27T19:56:40.719Z,979.69
2022-11-27T20:01:40.838Z,979.50
2022-11-27T20:06:40.604Z,979.53
2022-11-27T20:11:40.544Z,979.46
2022-11-27T20:16:40.543Z,979.26
2022-11-27T20:21:40.464Z,979.24
2022-11-27T20:26:42.774Z,979.14
2022-11-27T20:31:40.374Z,979.09
2022-11-27T20:36:40.231Z,978.93
2022-11-27T20:41:40.187Z,978.81
2022-11-27T20:46:40.150Z,978.68
2022-11-27T20:51:40.060Z,978.60
2022-11-27T20:56:40.004Z,978.43
2022-11-27T21:01:40.018Z,978.33
2022-11-27T21:06:43.796Z,978.24
2022-11-27T21:11:39.798Z,978.18
2022-11-27T21:16:39.763Z,978.23
2022-11-27T21:21:39.678Z,978.24
2022-11-27T21:26:39.664Z,978.17
2022-11-27T21:31:43.873Z,978.10
2022-11-27T21:36:40.497Z,978.03
2022-11-27T21:41:39.461Z,977.96
2022-11-27T21:46:39.398Z,977.85
2022-11-27T21:51:39.364Z,977.87
2022-11-27T21:56:39.301Z,977.84
2022-11-27T22:01:39.281Z,977.73
2022-11-27T22:06:39.177Z,977.64
2022-11-27T22:11:39.090Z,977.60
2022-11-27T22:16:44.749Z,977.65
2022-11-27T22:21:39.962Z,977.65
2022-11-27T22:26:38.929Z,977.59
2022-11-27T22:31:38.879Z,977.59
2022-11-27T22:36:38.824Z,977.51
2022-11-27T22:41:38.741Z,977.47
2022-11-27T22:46:38.698Z,977.50
2022-11-27T22:51:38.600Z,977.54
2022-11-27T22:56:38.547Z,977.52
2022-11-27T23:01:38.490Z,977.36
2022-11-27T23:06:38.438Z,977.37
2022-11-27T23:11:38.364Z,977.19
2022-11-27T23:16:38.358Z,977.21
2022-11-27T23:21:38.245Z,977.11
2022-11-27T23:26:38.209Z,977.03
2022-11-27T23:31:38.214Z,976.95
2022-11-27T23:36:38.124Z,976.91
2022-11-27T23:41:38.016Z,976.79
2022-11-27T23:46:37.963Z,976.67
2022-11-27T23:51:37.919Z,976.51
2022-11-27T23:56:37.840Z,976.48
